sensor_id;sensor_type;location;lat;lon;timestamp;P1;durP1;ratioP1;P2;durP2;ratioP2
46835;SDS011;32573;51.290;6.926;2023-05-10T00:00:07;9.93;;;4.97;;
46835;SDS011;32573;51.290;6.926;2023-05-10T00:02:40;9.40;;;4.80;;
46835;SDS011;32573;51.290;6.926;2023-05-10T00:05:09;9.98;;;4.70;;
46835;SDS011;32573;51.290;6.926;2023-05-10T00:07:39;8.85;;;4.35;;
46835;SDS011;32573;51.290;6.926;2023-05-10T00:10:08;8.35;;;4.50;;
46835;SDS011;32573;51.290;6.926;2023-05-10T00:12:37;11.15;;;5.05;;
46835;SDS011;32573;51.290;6.926;2023-05-10T00:15:08;11.18;;;5.28;;
46835;SDS011;32573;51.290;6.926;2023-05-10T00:17:37;8.82;;;4.38;;
46835;SDS011;32573;51.290;6.926;2023-05-10T00:20:06;8.60;;;4.28;;
46835;SDS011;32573;51.290;6.926;2023-05-10T00:22:35;9.07;;;4.45;;
46835;SDS011;32573;51.290;6.926;2023-05-10T00:25:06;9.32;;;4.10;;
46835;SDS011;32573;51.290;6.926;2023-05-10T00:27:36;9.77;;;4.55;;
46835;SDS011;32573;51.290;6.926;2023-05-10T00:30:05;10.48;;;5.60;;
46835;SDS011;32573;51.290;6.926;2023-05-10T00:32:35;9.98;;;4.68;;
46835;SDS011;32573;51.290;6.926;2023-05-10T00:35:04;7.80;;;4.10;;
46835;SDS011;32573;51.290;6.926;2023-05-10T00:37:33;10.43;;;5.13;;
46835;SDS011;32573;51.290;6.926;2023-05-10T00:40:02;10.27;;;5.03;;
46835;SDS011;32573;51.290;6.926;2023-05-10T00:42:33;12.40;;;6.03;;
46835;SDS011;32573;51.290;6.926;2023-05-10T00:45:02;12.57;;;6.22;;
46835;SDS011;32573;51.290;6.926;2023-05-10T00:47:31;11.45;;;5.82;;
46835;SDS011;32573;51.290;6.926;2023-05-10T00:50:01;12.57;;;6.03;;
46835;SDS011;32573;51.290;6.926;2023-05-10T00:52:31;11.43;;;5.88;;
46835;SDS011;32573;51.290;6.926;2023-05-10T00:55:00;10.80;;;5.25;;
46835;SDS011;32573;51.290;6.926;2023-05-10T00:57:32;12.30;;;6.05;;
46835;SDS011;32573;51.290;6.926;2023-05-10T01:00:01;10.30;;;5.10;;
46835;SDS011;32573;51.290;6.926;2023-05-10T01:02:31;11.20;;;5.85;;
46835;SDS011;32573;51.290;6.926;2023-05-10T01:05:01;11.70;;;6.38;;
46835;SDS011;32573;51.290;6.926;2023-05-10T01:07:32;11.32;;;6.15;;
46835;SDS011;32573;51.290;6.926;2023-05-10T01:10:01;13.02;;;6.57;;
46835;SDS011;32573;51.290;6.926;2023-05-10T01:12:30;10.63;;;5.80;;
46835;SDS011;32573;51.290;6.926;2023-05-10T01:15:00;14.05;;;6.70;;
46835;SDS011;32573;51.290;6.926;2023-05-10T01:17:30;9.65;;;5.32;;
46835;SDS011;32573;51.290;6.926;2023-05-10T01:19:59;10.07;;;5.65;;
46835;SDS011;32573;51.290;6.926;2023-05-10T01:22:38;14.38;;;8.05;;
46835;SDS011;32573;51.290;6.926;2023-05-10T01:28:37;14.98;;;7.72;;
46835;SDS011;32573;51.290;6.926;2023-05-10T01:34:38;11.98;;;6.45;;
46835;SDS011;32573;51.290;6.926;2023-05-10T01:37:15;10.50;;;5.47;;
46835;SDS011;32573;51.290;6.926;2023-05-10T01:39:51;9.43;;;5.45;;
46835;SDS011;32573;51.290;6.926;2023-05-10T01:42:25;11.20;;;5.38;;
46835;SDS011;32573;51.290;6.926;2023-05-10T01:45:00;11.55;;;6.13;;
46835;SDS011;32573;51.290;6.926;2023-05-10T01:47:37;12.50;;;6.68;;
46835;SDS011;32573;51.290;6.926;2023-05-10T01:50:14;13.37;;;7.43;;
46835;SDS011;32573;51.290;6.926;2023-05-10T01:52:46;11.00;;;6.10;;
46835;SDS011;32573;51.290;6.926;2023-05-10T01:55:19;9.50;;;5.35;;
46835;SDS011;32573;51.290;6.926;2023-05-10T01:57:50;11.77;;;6.13;;
46835;SDS011;32573;51.290;6.926;2023-05-10T02:00:27;10.52;;;5.57;;
46835;SDS011;32573;51.290;6.926;2023-05-10T02:02:58;10.23;;;5.28;;
46835;SDS011;32573;51.290;6.926;2023-05-10T02:05:31;14.10;;;7.10;;
46835;SDS011;32573;51.290;6.926;2023-05-10T02:08:01;14.55;;;6.78;;
46835;SDS011;32573;51.290;6.926;2023-05-10T02:10:36;13.13;;;6.82;;
46835;SDS011;32573;51.290;6.926;2023-05-10T02:13:07;12.38;;;6.10;;
46835;SDS011;32573;51.290;6.926;2023-05-10T02:15:37;11.30;;;5.53;;
46835;SDS011;32573;51.290;6.926;2023-05-10T02:18:08;10.30;;;5.65;;
46835;SDS011;32573;51.290;6.926;2023-05-10T02:20:40;12.32;;;5.97;;
46835;SDS011;32573;51.290;6.926;2023-05-10T02:23:11;10.35;;;5.78;;
46835;SDS011;32573;51.290;6.926;2023-05-10T02:25:41;10.23;;;5.28;;
46835;SDS011;32573;51.290;6.926;2023-05-10T02:28:11;9.43;;;4.90;;
46835;SDS011;32573;51.290;6.926;2023-05-10T02:30:42;9.38;;;4.40;;
46835;SDS011;32573;51.290;6.926;2023-05-10T02:33:12;9.00;;;4.53;;
46835;SDS011;32573;51.290;6.926;2023-05-10T02:35:44;10.75;;;5.95;;
46835;SDS011;32573;51.290;6.926;2023-05-10T02:38:23;11.18;;;5.10;;
46835;SDS011;32573;51.290;6.926;2023-05-10T02:41:03;11.57;;;5.70;;
46835;SDS011;32573;51.290;6.926;2023-05-10T02:43:54;11.07;;;5.38;;
46835;SDS011;32573;51.290;6.926;2023-05-10T02:46:27;8.90;;;4.97;;
46835;SDS011;32573;51.290;6.926;2023-05-10T02:48:56;9.82;;;5.13;;
46835;SDS011;32573;51.290;6.926;2023-05-10T02:51:28;8.70;;;4.40;;
46835;SDS011;32573;51.290;6.926;2023-05-10T02:54:01;9.63;;;4.80;;
46835;SDS011;32573;51.290;6.926;2023-05-10T02:56:44;10.52;;;4.85;;
46835;SDS011;32573;51.290;6.926;2023-05-10T02:59:18;9.90;;;4.68;;
46835;SDS011;32573;51.290;6.926;2023-05-10T03:01:47;9.13;;;4.72;;
46835;SDS011;32573;51.290;6.926;2023-05-10T03:04:15;9.45;;;4.85;;
46835;SDS011;32573;51.290;6.926;2023-05-10T03:06:46;8.38;;;4.10;;
46835;SDS011;32573;51.290;6.926;2023-05-10T03:09:15;8.02;;;4.00;;
46835;SDS011;32573;51.290;6.926;2023-05-10T03:11:47;8.40;;;4.20;;
46835;SDS011;32573;51.290;6.926;2023-05-10T03:17:19;11.48;;;5.60;;
46835;SDS011;32573;51.290;6.926;2023-05-10T03:19:54;9.48;;;4.60;;
46835;SDS011;32573;51.290;6.926;2023-05-10T03:22:28;12.90;;;6.10;;
46835;SDS011;32573;51.290;6.926;2023-05-10T03:25:00;11.75;;;5.55;;
46835;SDS011;32573;51.290;6.926;2023-05-10T03:27:40;10.00;;;5.00;;
46835;SDS011;32573;51.290;6.926;2023-05-10T03:30:11;10.00;;;4.65;;
46835;SDS011;32573;51.290;6.926;2023-05-10T03:32:41;12.52;;;5.65;;
46835;SDS011;32573;51.290;6.926;2023-05-10T03:35:10;9.02;;;4.35;;
46835;SDS011;32573;51.290;6.926;2023-05-10T03:37:41;9.63;;;4.70;;
46835;SDS011;32573;51.290;6.926;2023-05-10T03:40:10;9.30;;;4.45;;
46835;SDS011;32573;51.290;6.926;2023-05-10T03:42:41;7.93;;;4.07;;
46835;SDS011;32573;51.290;6.926;2023-05-10T03:45:10;7.90;;;3.85;;
46835;SDS011;32573;51.290;6.926;2023-05-10T03:47:40;8.18;;;3.65;;
46835;SDS011;32573;51.290;6.926;2023-05-10T03:50:09;8.27;;;4.20;;
46835;SDS011;32573;51.290;6.926;2023-05-10T03:52:38;7.45;;;3.53;;
46835;SDS011;32573;51.290;6.926;2023-05-10T03:55:08;7.72;;;3.75;;
46835;SDS011;32573;51.290;6.926;2023-05-10T03:57:37;6.85;;;3.45;;
46835;SDS011;32573;51.290;6.926;2023-05-10T04:00:07;9.43;;;4.50;;
46835;SDS011;32573;51.290;6.926;2023-05-10T04:02:43;8.68;;;4.15;;
46835;SDS011;32573;51.290;6.926;2023-05-10T04:05:17;9.00;;;4.43;;
46835;SDS011;32573;51.290;6.926;2023-05-10T04:07:46;7.95;;;3.47;;
46835;SDS011;32573;51.290;6.926;2023-05-10T04:10:17;11.68;;;5.40;;
46835;SDS011;32573;51.290;6.926;2023-05-10T04:12:46;8.07;;;4.13;;
46835;SDS011;32573;51.290;6.926;2023-05-10T04:15:15;9.63;;;4.53;;
46835;SDS011;32573;51.290;6.926;2023-05-10T04:17:44;10.88;;;5.55;;
46835;SDS011;32573;51.290;6.926;2023-05-10T04:20:13;10.23;;;4.72;;
46835;SDS011;32573;51.290;6.926;2023-05-10T04:22:42;10.63;;;5.35;;
46835;SDS011;32573;51.290;6.926;2023-05-10T04:25:11;15.75;;;7.43;;
46835;SDS011;32573;51.290;6.926;2023-05-10T04:27:43;12.20;;;5.50;;
46835;SDS011;32573;51.290;6.926;2023-05-10T04:30:12;14.20;;;5.90;;
46835;SDS011;32573;51.290;6.926;2023-05-10T04:32:41;15.88;;;7.78;;
46835;SDS011;32573;51.290;6.926;2023-05-10T04:35:10;11.75;;;5.82;;
46835;SDS011;32573;51.290;6.926;2023-05-10T04:37:39;11.80;;;5.35;;
46835;SDS011;32573;51.290;6.926;2023-05-10T04:40:08;11.85;;;5.45;;
46835;SDS011;32573;51.290;6.926;2023-05-10T04:42:39;16.35;;;7.32;;
46835;SDS011;32573;51.290;6.926;2023-05-10T04:45:09;17.67;;;8.15;;
46835;SDS011;32573;51.290;6.926;2023-05-10T04:47:39;17.70;;;8.52;;
46835;SDS011;32573;51.290;6.926;2023-05-10T04:50:08;14.60;;;6.80;;
46835;SDS011;32573;51.290;6.926;2023-05-10T04:52:37;14.88;;;6.90;;
46835;SDS011;32573;51.290;6.926;2023-05-10T04:55:10;19.20;;;8.80;;
46835;SDS011;32573;51.290;6.926;2023-05-10T04:57:40;15.75;;;7.68;;
46835;SDS011;32573;51.290;6.926;2023-05-10T05:00:11;20.02;;;8.52;;
46835;SDS011;32573;51.290;6.926;2023-05-10T05:02:42;18.05;;;8.27;;
46835;SDS011;32573;51.290;6.926;2023-05-10T05:05:11;19.73;;;8.55;;
46835;SDS011;32573;51.290;6.926;2023-05-10T05:07:40;15.68;;;7.63;;
46835;SDS011;32573;51.290;6.926;2023-05-10T05:10:09;21.13;;;9.65;;
46835;SDS011;32573;51.290;6.926;2023-05-10T05:12:38;17.10;;;8.38;;
46835;SDS011;32573;51.290;6.926;2023-05-10T05:15:07;15.40;;;7.90;;
46835;SDS011;32573;51.290;6.926;2023-05-10T05:17:39;16.45;;;7.80;;
46835;SDS011;32573;51.290;6.926;2023-05-10T05:20:09;18.70;;;9.40;;
46835;SDS011;32573;51.290;6.926;2023-05-10T05:22:38;17.33;;;7.80;;
46835;SDS011;32573;51.290;6.926;2023-05-10T05:25:08;15.13;;;7.22;;
46835;SDS011;32573;51.290;6.926;2023-05-10T05:27:38;16.08;;;7.22;;
46835;SDS011;32573;51.290;6.926;2023-05-10T05:30:07;20.08;;;8.80;;
46835;SDS011;32573;51.290;6.926;2023-05-10T05:32:37;18.27;;;8.55;;
46835;SDS011;32573;51.290;6.926;2023-05-10T05:35:07;17.45;;;7.97;;
46835;SDS011;32573;51.290;6.926;2023-05-10T05:37:36;18.38;;;8.98;;
46835;SDS011;32573;51.290;6.926;2023-05-10T05:40:06;20.92;;;9.50;;
46835;SDS011;32573;51.290;6.926;2023-05-10T05:42:35;20.65;;;9.32;;
46835;SDS011;32573;51.290;6.926;2023-05-10T05:45:05;20.20;;;9.85;;
46835;SDS011;32573;51.290;6.926;2023-05-10T05:47:35;19.83;;;9.73;;
46835;SDS011;32573;51.290;6.926;2023-05-10T05:50:05;21.60;;;9.65;;
46835;SDS011;32573;51.290;6.926;2023-05-10T05:52:36;21.42;;;8.68;;
46835;SDS011;32573;51.290;6.926;2023-05-10T05:55:05;20.63;;;8.52;;
46835;SDS011;32573;51.290;6.926;2023-05-10T05:57:34;17.48;;;8.55;;
46835;SDS011;32573;51.290;6.926;2023-05-10T06:00:04;17.98;;;8.48;;
46835;SDS011;32573;51.290;6.926;2023-05-10T06:02:39;16.00;;;7.80;;
46835;SDS011;32573;51.290;6.926;2023-05-10T06:05:08;17.20;;;8.38;;
46835;SDS011;32573;51.290;6.926;2023-05-10T06:07:38;15.73;;;7.25;;
46835;SDS011;32573;51.290;6.926;2023-05-10T06:10:09;16.77;;;7.93;;
46835;SDS011;32573;51.290;6.926;2023-05-10T06:12:38;15.95;;;8.00;;
46835;SDS011;32573;51.290;6.926;2023-05-10T06:15:07;16.77;;;8.85;;
46835;SDS011;32573;51.290;6.926;2023-05-10T06:17:37;17.05;;;8.48;;
46835;SDS011;32573;51.290;6.926;2023-05-10T06:20:06;20.33;;;9.05;;
46835;SDS011;32573;51.290;6.926;2023-05-10T06:22:36;16.38;;;7.70;;
46835;SDS011;32573;51.290;6.926;2023-05-10T06:25:06;16.88;;;8.43;;
46835;SDS011;32573;51.290;6.926;2023-05-10T06:27:36;15.63;;;7.38;;
46835;SDS011;32573;51.290;6.926;2023-05-10T06:30:05;16.67;;;8.07;;
46835;SDS011;32573;51.290;6.926;2023-05-10T06:35:08;12.80;;;6.78;;
46835;SDS011;32573;51.290;6.926;2023-05-10T06:37:37;14.88;;;7.13;;
46835;SDS011;32573;51.290;6.926;2023-05-10T06:40:07;17.50;;;8.18;;
46835;SDS011;32573;51.290;6.926;2023-05-10T06:42:37;16.15;;;7.75;;
46835;SDS011;32573;51.290;6.926;2023-05-10T06:45:06;20.90;;;9.35;;
46835;SDS011;32573;51.290;6.926;2023-05-10T06:47:36;16.70;;;8.38;;
46835;SDS011;32573;51.290;6.926;2023-05-10T06:50:06;18.42;;;9.00;;
46835;SDS011;32573;51.290;6.926;2023-05-10T06:52:35;20.63;;;10.02;;
46835;SDS011;32573;51.290;6.926;2023-05-10T06:55:04;17.38;;;8.93;;
46835;SDS011;32573;51.290;6.926;2023-05-10T06:57:35;19.88;;;8.60;;
46835;SDS011;32573;51.290;6.926;2023-05-10T07:00:04;21.10;;;9.40;;
46835;SDS011;32573;51.290;6.926;2023-05-10T07:02:34;19.80;;;9.07;;
46835;SDS011;32573;51.290;6.926;2023-05-10T07:05:06;21.20;;;9.98;;
46835;SDS011;32573;51.290;6.926;2023-05-10T07:07:35;20.00;;;8.43;;
46835;SDS011;32573;51.290;6.926;2023-05-10T07:10:04;18.40;;;8.15;;
46835;SDS011;32573;51.290;6.926;2023-05-10T07:12:35;18.20;;;8.45;;
46835;SDS011;32573;51.290;6.926;2023-05-10T07:15:05;14.93;;;7.45;;
46835;SDS011;32573;51.290;6.926;2023-05-10T07:17:35;18.83;;;8.93;;
46835;SDS011;32573;51.290;6.926;2023-05-10T07:20:04;18.35;;;9.30;;
46835;SDS011;32573;51.290;6.926;2023-05-10T07:22:34;21.88;;;10.15;;
46835;SDS011;32573;51.290;6.926;2023-05-10T07:25:03;21.98;;;9.93;;
46835;SDS011;32573;51.290;6.926;2023-05-10T07:27:32;24.10;;;10.88;;
46835;SDS011;32573;51.290;6.926;2023-05-10T07:30:03;23.30;;;10.65;;
46835;SDS011;32573;51.290;6.926;2023-05-10T07:32:32;19.45;;;9.52;;
46835;SDS011;32573;51.290;6.926;2023-05-10T07:35:01;20.17;;;9.38;;
46835;SDS011;32573;51.290;6.926;2023-05-10T07:37:30;18.50;;;7.88;;
46835;SDS011;32573;51.290;6.926;2023-05-10T07:39:59;22.27;;;9.32;;
46835;SDS011;32573;51.290;6.926;2023-05-10T07:42:27;20.42;;;8.05;;
46835;SDS011;32573;51.290;6.926;2023-05-10T07:44:56;23.48;;;10.32;;
46835;SDS011;32573;51.290;6.926;2023-05-10T07:47:28;18.10;;;7.97;;
46835;SDS011;32573;51.290;6.926;2023-05-10T07:49:57;20.52;;;9.25;;
46835;SDS011;32573;51.290;6.926;2023-05-10T07:52:25;19.63;;;8.48;;
46835;SDS011;32573;51.290;6.926;2023-05-10T07:54:54;18.63;;;8.05;;
46835;SDS011;32573;51.290;6.926;2023-05-10T07:57:26;21.88;;;9.98;;
46835;SDS011;32573;51.290;6.926;2023-05-10T07:59:58;20.08;;;8.90;;
46835;SDS011;32573;51.290;6.926;2023-05-10T08:02:28;19.88;;;8.73;;
46835;SDS011;32573;51.290;6.926;2023-05-10T08:04:58;21.95;;;9.80;;
46835;SDS011;32573;51.290;6.926;2023-05-10T08:07:27;19.45;;;8.95;;
46835;SDS011;32573;51.290;6.926;2023-05-10T08:09:55;20.50;;;8.68;;
46835;SDS011;32573;51.290;6.926;2023-05-10T08:12:26;21.23;;;9.68;;
46835;SDS011;32573;51.290;6.926;2023-05-10T08:14:55;18.67;;;8.38;;
46835;SDS011;32573;51.290;6.926;2023-05-10T08:17:24;20.48;;;8.15;;
46835;SDS011;32573;51.290;6.926;2023-05-10T08:19:54;14.98;;;7.28;;
46835;SDS011;32573;51.290;6.926;2023-05-10T08:22:25;18.13;;;8.52;;
46835;SDS011;32573;51.290;6.926;2023-05-10T08:24:54;17.85;;;7.85;;
46835;SDS011;32573;51.290;6.926;2023-05-10T08:27:23;19.58;;;8.05;;
46835;SDS011;32573;51.290;6.926;2023-05-10T08:29:51;17.00;;;7.88;;
46835;SDS011;32573;51.290;6.926;2023-05-10T08:32:20;23.70;;;9.60;;
46835;SDS011;32573;51.290;6.926;2023-05-10T08:34:49;22.20;;;9.85;;
46835;SDS011;32573;51.290;6.926;2023-05-10T08:37:19;25.33;;;11.38;;
46835;SDS011;32573;51.290;6.926;2023-05-10T08:39:47;29.90;;;11.95;;
46835;SDS011;32573;51.290;6.926;2023-05-10T08:42:16;28.02;;;11.57;;
46835;SDS011;32573;51.290;6.926;2023-05-10T08:44:50;27.50;;;11.10;;
46835;SDS011;32573;51.290;6.926;2023-05-10T08:47:22;24.98;;;11.10;;
46835;SDS011;32573;51.290;6.926;2023-05-10T08:49:51;31.00;;;13.23;;
46835;SDS011;32573;51.290;6.926;2023-05-10T08:52:22;28.67;;;11.63;;
46835;SDS011;32573;51.290;6.926;2023-05-10T08:54:54;29.42;;;12.23;;
46835;SDS011;32573;51.290;6.926;2023-05-10T08:57:23;28.55;;;11.30;;
46835;SDS011;32573;51.290;6.926;2023-05-10T08:59:55;31.13;;;13.15;;
46835;SDS011;32573;51.290;6.926;2023-05-10T09:02:24;25.85;;;11.60;;
46835;SDS011;32573;51.290;6.926;2023-05-10T09:04:53;28.45;;;13.15;;
46835;SDS011;32573;51.290;6.926;2023-05-10T09:07:24;26.98;;;11.38;;
46835;SDS011;32573;51.290;6.926;2023-05-10T09:09:53;30.98;;;13.40;;
46835;SDS011;32573;51.290;6.926;2023-05-10T09:12:22;30.52;;;13.15;;
46835;SDS011;32573;51.290;6.926;2023-05-10T09:14:51;32.95;;;13.77;;
46835;SDS011;32573;51.290;6.926;2023-05-10T09:17:22;29.52;;;12.57;;
46835;SDS011;32573;51.290;6.926;2023-05-10T09:19:56;25.38;;;11.40;;
46835;SDS011;32573;51.290;6.926;2023-05-10T09:22:31;25.10;;;11.30;;
46835;SDS011;32573;51.290;6.926;2023-05-10T09:25:06;28.13;;;11.80;;
46835;SDS011;32573;51.290;6.926;2023-05-10T09:27:36;26.13;;;12.40;;
46835;SDS011;32573;51.290;6.926;2023-05-10T09:30:05;27.38;;;12.23;;
46835;SDS011;32573;51.290;6.926;2023-05-10T09:32:36;22.45;;;11.10;;
46835;SDS011;32573;51.290;6.926;2023-05-10T09:35:06;25.48;;;11.43;;
46835;SDS011;32573;51.290;6.926;2023-05-10T09:37:40;27.75;;;11.20;;
46835;SDS011;32573;51.290;6.926;2023-05-10T09:40:11;25.05;;;11.00;;
46835;SDS011;32573;51.290;6.926;2023-05-10T09:42:42;20.73;;;9.43;;
46835;SDS011;32573;51.290;6.926;2023-05-10T09:45:18;26.15;;;11.77;;
46835;SDS011;32573;51.290;6.926;2023-05-10T09:47:47;22.35;;;10.02;;
46835;SDS011;32573;51.290;6.926;2023-05-10T09:50:16;21.65;;;10.60;;
46835;SDS011;32573;51.290;6.926;2023-05-10T09:52:50;20.98;;;9.93;;
46835;SDS011;32573;51.290;6.926;2023-05-10T09:55:21;20.05;;;9.93;;
46835;SDS011;32573;51.290;6.926;2023-05-10T09:57:59;24.13;;;11.05;;
46835;SDS011;32573;51.290;6.926;2023-05-10T10:00:33;21.88;;;10.68;;
46835;SDS011;32573;51.290;6.926;2023-05-10T10:03:04;19.73;;;9.00;;
46835;SDS011;32573;51.290;6.926;2023-05-10T10:05:33;19.25;;;8.88;;
46835;SDS011;32573;51.290;6.926;2023-05-10T10:08:05;20.83;;;9.55;;
46835;SDS011;32573;51.290;6.926;2023-05-10T10:10:34;17.60;;;9.15;;
46835;SDS011;32573;51.290;6.926;2023-05-10T10:13:03;15.07;;;7.97;;
46835;SDS011;32573;51.290;6.926;2023-05-10T10:15:32;18.67;;;9.18;;
46835;SDS011;32573;51.290;6.926;2023-05-10T10:18:02;14.15;;;7.60;;
46835;SDS011;32573;51.290;6.926;2023-05-10T10:20:32;14.60;;;7.30;;
46835;SDS011;32573;51.290;6.926;2023-05-10T10:23:00;17.95;;;8.95;;
46835;SDS011;32573;51.290;6.926;2023-05-10T10:25:31;15.80;;;8.40;;
46835;SDS011;32573;51.290;6.926;2023-05-10T10:28:07;15.82;;;7.90;;
46835;SDS011;32573;51.290;6.926;2023-05-10T10:30:43;16.33;;;8.55;;
46835;SDS011;32573;51.290;6.926;2023-05-10T10:33:28;15.20;;;8.13;;
46835;SDS011;32573;51.290;6.926;2023-05-10T10:36:07;18.85;;;8.82;;
46835;SDS011;32573;51.290;6.926;2023-05-10T10:38:55;15.43;;;8.00;;
46835;SDS011;32573;51.290;6.926;2023-05-10T10:41:33;14.20;;;7.43;;
46835;SDS011;32573;51.290;6.926;2023-05-10T10:47:09;17.48;;;8.88;;
46835;SDS011;32573;51.290;6.926;2023-05-10T10:49:52;17.10;;;8.93;;
46835;SDS011;32573;51.290;6.926;2023-05-10T10:52:31;15.32;;;8.50;;
46835;SDS011;32573;51.290;6.926;2023-05-10T10:55:02;14.82;;;8.55;;
46835;SDS011;32573;51.290;6.926;2023-05-10T10:57:41;14.50;;;7.97;;
46835;SDS011;32573;51.290;6.926;2023-05-10T11:00:21;15.73;;;8.23;;
46835;SDS011;32573;51.290;6.926;2023-05-10T11:02:52;16.00;;;8.20;;
46835;SDS011;32573;51.290;6.926;2023-05-10T11:05:23;15.15;;;8.18;;
46835;SDS011;32573;51.290;6.926;2023-05-10T11:08:13;16.55;;;8.60;;
46835;SDS011;32573;51.290;6.926;2023-05-10T11:10:52;13.45;;;7.28;;
46835;SDS011;32573;51.290;6.926;2023-05-10T11:13:32;13.70;;;8.07;;
46835;SDS011;32573;51.290;6.926;2023-05-10T11:16:12;13.57;;;8.05;;
46835;SDS011;32573;51.290;6.926;2023-05-10T11:18:53;12.27;;;7.13;;
46835;SDS011;32573;51.290;6.926;2023-05-10T11:21:26;16.50;;;8.85;;
46835;SDS011;32573;51.290;6.926;2023-05-10T11:23:56;13.98;;;7.57;;
46835;SDS011;32573;51.290;6.926;2023-05-10T11:26:26;15.15;;;8.13;;
46835;SDS011;32573;51.290;6.926;2023-05-10T11:29:00;16.10;;;8.48;;
46835;SDS011;32573;51.290;6.926;2023-05-10T11:31:31;14.95;;;7.55;;
46835;SDS011;32573;51.290;6.926;2023-05-10T11:34:00;12.13;;;6.05;;
46835;SDS011;32573;51.290;6.926;2023-05-10T11:36:33;14.63;;;7.72;;
46835;SDS011;32573;51.290;6.926;2023-05-10T11:39:03;15.90;;;8.02;;
46835;SDS011;32573;51.290;6.926;2023-05-10T11:41:32;16.05;;;7.95;;
46835;SDS011;32573;51.290;6.926;2023-05-10T11:44:02;15.57;;;8.15;;
46835;SDS011;32573;51.290;6.926;2023-05-10T11:46:32;13.10;;;7.10;;
46835;SDS011;32573;51.290;6.926;2023-05-10T11:49:00;18.05;;;9.32;;
46835;SDS011;32573;51.290;6.926;2023-05-10T11:51:33;16.05;;;8.30;;
46835;SDS011;32573;51.290;6.926;2023-05-10T11:54:05;15.63;;;8.57;;
46835;SDS011;32573;51.290;6.926;2023-05-10T11:56:35;14.07;;;7.70;;
46835;SDS011;32573;51.290;6.926;2023-05-10T11:59:06;14.20;;;7.90;;
46835;SDS011;32573;51.290;6.926;2023-05-10T12:01:35;19.52;;;10.30;;
46835;SDS011;32573;51.290;6.926;2023-05-10T12:04:04;16.92;;;7.93;;
46835;SDS011;32573;51.290;6.926;2023-05-10T12:06:35;20.90;;;10.45;;
46835;SDS011;32573;51.290;6.926;2023-05-10T12:09:07;18.15;;;10.00;;
46835;SDS011;32573;51.290;6.926;2023-05-10T12:11:37;16.38;;;9.18;;
46835;SDS011;32573;51.290;6.926;2023-05-10T12:14:12;16.10;;;8.77;;
46835;SDS011;32573;51.290;6.926;2023-05-10T12:16:42;15.60;;;8.73;;
46835;SDS011;32573;51.290;6.926;2023-05-10T12:19:12;11.70;;;7.65;;
46835;SDS011;32573;51.290;6.926;2023-05-10T12:21:40;14.27;;;8.00;;
46835;SDS011;32573;51.290;6.926;2023-05-10T12:24:09;12.93;;;6.82;;
46835;SDS011;32573;51.290;6.926;2023-05-10T12:26:38;12.40;;;7.00;;
46835;SDS011;32573;51.290;6.926;2023-05-10T12:29:15;14.85;;;8.55;;
46835;SDS011;32573;51.290;6.926;2023-05-10T12:31:51;12.60;;;7.53;;
46835;SDS011;32573;51.290;6.926;2023-05-10T12:34:24;17.23;;;8.40;;
46835;SDS011;32573;51.290;6.926;2023-05-10T12:36:59;12.25;;;7.20;;
46835;SDS011;32573;51.290;6.926;2023-05-10T12:39:37;15.60;;;8.65;;
46835;SDS011;32573;51.290;6.926;2023-05-10T12:42:10;14.32;;;8.20;;
46835;SDS011;32573;51.290;6.926;2023-05-10T12:44:40;12.27;;;7.82;;
46835;SDS011;32573;51.290;6.926;2023-05-10T12:47:08;11.18;;;6.90;;
46835;SDS011;32573;51.290;6.926;2023-05-10T12:49:37;11.35;;;6.78;;
46835;SDS011;32573;51.290;6.926;2023-05-10T12:52:06;11.57;;;6.70;;
46835;SDS011;32573;51.290;6.926;2023-05-10T12:54:35;12.75;;;7.53;;
46835;SDS011;32573;51.290;6.926;2023-05-10T12:57:03;14.50;;;8.93;;
46835;SDS011;32573;51.290;6.926;2023-05-10T12:59:32;13.02;;;7.00;;
46835;SDS011;32573;51.290;6.926;2023-05-10T13:02:05;11.13;;;6.82;;
46835;SDS011;32573;51.290;6.926;2023-05-10T13:04:34;14.00;;;6.90;;
46835;SDS011;32573;51.290;6.926;2023-05-10T13:07:04;12.65;;;8.40;;
46835;SDS011;32573;51.290;6.926;2023-05-10T13:09:33;12.02;;;6.90;;
46835;SDS011;32573;51.290;6.926;2023-05-10T13:12:01;11.60;;;7.38;;
46835;SDS011;32573;51.290;6.926;2023-05-10T13:14:30;12.40;;;7.68;;
46835;SDS011;32573;51.290;6.926;2023-05-10T13:16:59;10.00;;;5.90;;
46835;SDS011;32573;51.290;6.926;2023-05-10T13:19:29;10.88;;;6.40;;
46835;SDS011;32573;51.290;6.926;2023-05-10T13:21:57;13.68;;;7.78;;
46835;SDS011;32573;51.290;6.926;2023-05-10T13:24:26;12.35;;;6.72;;
46835;SDS011;32573;51.290;6.926;2023-05-10T13:26:55;10.38;;;6.13;;
46835;SDS011;32573;51.290;6.926;2023-05-10T13:29:23;9.40;;;5.85;;
46835;SDS011;32573;51.290;6.926;2023-05-10T13:31:52;9.90;;;6.13;;
46835;SDS011;32573;51.290;6.926;2023-05-10T13:34:20;12.57;;;7.15;;
46835;SDS011;32573;51.290;6.926;2023-05-10T13:36:50;10.13;;;6.18;;
46835;SDS011;32573;51.290;6.926;2023-05-10T13:39:20;10.98;;;5.82;;
46835;SDS011;32573;51.290;6.926;2023-05-10T13:41:49;10.57;;;6.80;;
46835;SDS011;32573;51.290;6.926;2023-05-10T13:44:21;12.50;;;7.13;;
46835;SDS011;32573;51.290;6.926;2023-05-10T13:46:50;12.27;;;7.00;;
46835;SDS011;32573;51.290;6.926;2023-05-10T13:49:19;14.15;;;8.27;;
46835;SDS011;32573;51.290;6.926;2023-05-10T13:51:48;15.13;;;8.60;;
46835;SDS011;32573;51.290;6.926;2023-05-10T13:54:19;13.45;;;7.97;;
46835;SDS011;32573;51.290;6.926;2023-05-10T13:56:49;15.45;;;8.73;;
46835;SDS011;32573;51.290;6.926;2023-05-10T13:59:18;13.48;;;7.88;;
46835;SDS011;32573;51.290;6.926;2023-05-10T14:01:46;13.85;;;7.72;;
46835;SDS011;32573;51.290;6.926;2023-05-10T14:04:15;14.32;;;8.75;;
46835;SDS011;32573;51.290;6.926;2023-05-10T14:06:43;15.43;;;8.27;;
46835;SDS011;32573;51.290;6.926;2023-05-10T14:09:12;11.13;;;6.72;;
46835;SDS011;32573;51.290;6.926;2023-05-10T14:11:41;13.20;;;7.53;;
46835;SDS011;32573;51.290;6.926;2023-05-10T14:14:12;11.25;;;6.75;;
46835;SDS011;32573;51.290;6.926;2023-05-10T14:16:41;12.68;;;7.35;;
46835;SDS011;32573;51.290;6.926;2023-05-10T14:19:10;14.73;;;8.63;;
46835;SDS011;32573;51.290;6.926;2023-05-10T14:21:39;14.07;;;8.07;;
46835;SDS011;32573;51.290;6.926;2023-05-10T14:24:08;13.10;;;7.40;;
46835;SDS011;32573;51.290;6.926;2023-05-10T14:26:37;14.45;;;8.07;;
46835;SDS011;32573;51.290;6.926;2023-05-10T14:29:06;11.00;;;7.10;;
46835;SDS011;32573;51.290;6.926;2023-05-10T14:31:38;13.52;;;8.57;;
46835;SDS011;32573;51.290;6.926;2023-05-10T14:34:07;14.75;;;7.45;;
46835;SDS011;32573;51.290;6.926;2023-05-10T14:36:35;11.93;;;7.25;;
46835;SDS011;32573;51.290;6.926;2023-05-10T14:39:04;11.35;;;6.82;;
46835;SDS011;32573;51.290;6.926;2023-05-10T14:41:33;10.68;;;6.32;;
46835;SDS011;32573;51.290;6.926;2023-05-10T14:44:02;12.57;;;7.55;;
46835;SDS011;32573;51.290;6.926;2023-05-10T14:46:32;12.02;;;7.38;;
46835;SDS011;32573;51.290;6.926;2023-05-10T14:49:01;11.82;;;7.40;;
46835;SDS011;32573;51.290;6.926;2023-05-10T14:51:30;12.07;;;7.25;;
46835;SDS011;32573;51.290;6.926;2023-05-10T14:53:59;11.75;;;7.22;;
46835;SDS011;32573;51.290;6.926;2023-05-10T14:56:27;10.38;;;6.10;;
46835;SDS011;32573;51.290;6.926;2023-05-10T14:58:56;9.88;;;5.93;;
46835;SDS011;32573;51.290;6.926;2023-05-10T15:01:24;11.57;;;6.78;;
46835;SDS011;32573;51.290;6.926;2023-05-10T15:03:55;11.73;;;7.00;;
46835;SDS011;32573;51.290;6.926;2023-05-10T15:06:30;11.88;;;6.63;;
46835;SDS011;32573;51.290;6.926;2023-05-10T15:08:59;10.48;;;6.63;;
46835;SDS011;32573;51.290;6.926;2023-05-10T15:11:28;11.05;;;6.18;;